sensor_id;sensor_type;location;lat;lon;timestamp;temperature;humidity
40630;DHT22;26329;40.388;-3.710;2022-12-10T00:00:45;10.20;85.10
40630;DHT22;26329;40.388;-3.710;2022-12-10T00:10:50;10.20;85.20
40630;DHT22;26329;40.388;-3.710;2022-12-10T00:20:55;10.20;85.10
40630;DHT22;26329;40.388;-3.710;2022-12-10T00:31:02;10.30;85.20
40630;DHT22;26329;40.388;-3.710;2022-12-10T00:41:06;10.30;85.50
40630;DHT22;26329;40.388;-3.710;2022-12-10T00:51:19;10.30;85.30
40630;DHT22;26329;40.388;-3.710;2022-12-10T01:11:33;10.10;85.60
40630;DHT22;26329;40.388;-3.710;2022-12-10T01:21:50;10.10;85.60
40630;DHT22;26329;40.388;-3.710;2022-12-10T01:32:03;10.20;85.70
40630;DHT22;26329;40.388;-3.710;2022-12-10T01:42:14;10.20;85.70
40630;DHT22;26329;40.388;-3.710;2022-12-10T01:52:23;10.30;85.60
40630;DHT22;26329;40.388;-3.710;2022-12-10T02:02:41;10.30;85.40
40630;DHT22;26329;40.388;-3.710;2022-12-10T02:13:11;10.30;85.30
40630;DHT22;26329;40.388;-3.710;2022-12-10T02:23:26;10.30;85.40
40630;DHT22;26329;40.388;-3.710;2022-12-10T02:33:53;10.30;85.50
40630;DHT22;26329;40.388;-3.710;2022-12-10T02:44:17;10.30;85.60
40630;DHT22;26329;40.388;-3.710;2022-12-10T02:54:40;10.40;85.50
40630;DHT22;26329;40.388;-3.710;2022-12-10T03:05:14;10.40;85.60
40630;DHT22;26329;40.388;-3.710;2022-12-10T03:15:23;10.40;85.70
40630;DHT22;26329;40.388;-3.710;2022-12-10T03:25:30;10.40;85.70
40630;DHT22;26329;40.388;-3.710;2022-12-10T03:35:37;10.30;86.00
40630;DHT22;26329;40.388;-3.710;2022-12-10T03:45:59;10.40;86.10
40630;DHT22;26329;40.388;-3.710;2022-12-10T03:56:04;10.40;86.40
40630;DHT22;26329;40.388;-3.710;2022-12-10T04:06:14;10.30;86.60
40630;DHT22;26329;40.388;-3.710;2022-12-10T04:16:16;10.40;86.80
40630;DHT22;26329;40.388;-3.710;2022-12-10T04:26:31;10.40;86.60
40630;DHT22;26329;40.388;-3.710;2022-12-10T04:36:54;10.50;86.50
40630;DHT22;26329;40.388;-3.710;2022-12-10T04:46:58;10.50;86.50
40630;DHT22;26329;40.388;-3.710;2022-12-10T04:57:00;10.40;86.50
40630;DHT22;26329;40.388;-3.710;2022-12-10T05:07:03;10.40;86.40
40630;DHT22;26329;40.388;-3.710;2022-12-10T05:17:06;10.40;86.50
40630;DHT22;26329;40.388;-3.710;2022-12-10T05:27:09;10.40;86.40
40630;DHT22;26329;40.388;-3.710;2022-12-10T05:37:30;10.30;86.60
40630;DHT22;26329;40.388;-3.710;2022-12-10T05:47:51;10.30;86.50
40630;DHT22;26329;40.388;-3.710;2022-12-10T05:58:03;10.30;86.60
40630;DHT22;26329;40.388;-3.710;2022-12-10T06:08:07;10.10;86.80
40630;DHT22;26329;40.388;-3.710;2022-12-10T06:18:10;10.10;86.90
40630;DHT22;26329;40.388;-3.710;2022-12-10T06:28:13;10.20;86.70
40630;DHT22;26329;40.388;-3.710;2022-12-10T06:38:16;10.10;86.60
40630;DHT22;26329;40.388;-3.710;2022-12-10T06:48:18;10.00;86.60
40630;DHT22;26329;40.388;-3.710;2022-12-10T06:58:20;9.90;86.60
40630;DHT22;26329;40.388;-3.710;2022-12-10T07:08:21;9.80;86.90
40630;DHT22;26329;40.388;-3.710;2022-12-10T07:18:25;9.80;86.80
40630;DHT22;26329;40.388;-3.710;2022-12-10T07:28:26;9.70;86.80
40630;DHT22;26329;40.388;-3.710;2022-12-10T07:38:28;9.70;87.00
40630;DHT22;26329;40.388;-3.710;2022-12-10T07:48:29;9.70;86.30
40630;DHT22;26329;40.388;-3.710;2022-12-10T07:58:31;9.60;86.20
40630;DHT22;26329;40.388;-3.710;2022-12-10T08:08:34;9.60;86.60
40630;DHT22;26329;40.388;-3.710;2022-12-10T08:18:36;9.70;86.40
40630;DHT22;26329;40.388;-3.710;2022-12-10T08:28:38;9.70;86.40
40630;DHT22;26329;40.388;-3.710;2022-12-10T08:38:40;9.80;85.60
40630;DHT22;26329;40.388;-3.710;2022-12-10T08:48:42;9.90;85.40
40630;DHT22;26329;40.388;-3.710;2022-12-10T08:58:44;9.90;85.20
40630;DHT22;26329;40.388;-3.710;2022-12-10T09:08:46;9.90;84.70
40630;DHT22;26329;40.388;-3.710;2022-12-10T09:18:48;10.10;84.40
40630;DHT22;26329;40.388;-3.710;2022-12-10T09:28:49;10.30;84.30
40630;DHT22;26329;40.388;-3.710;2022-12-10T09:38:51;10.60;83.70
40630;DHT22;26329;40.388;-3.710;2022-12-10T09:59:40;10.90;81.60
40630;DHT22;26329;40.388;-3.710;2022-12-10T10:09:43;11.20;79.90
40630;DHT22;26329;40.388;-3.710;2022-12-10T10:19:48;11.30;79.10
40630;DHT22;26329;40.388;-3.710;2022-12-10T10:29:52;11.30;78.10
40630;DHT22;26329;40.388;-3.710;2022-12-10T10:39:55;11.40;78.20
40630;DHT22;26329;40.388;-3.710;2022-12-10T10:49:57;11.70;77.70
40630;DHT22;26329;40.388;-3.710;2022-12-10T11:00:04;11.80;77.00
40630;DHT22;26329;40.388;-3.710;2022-12-10T11:10:21;12.00;76.50
40630;DHT22;26329;40.388;-3.710;2022-12-10T11:20:26;12.40;75.70
40630;DHT22;26329;40.388;-3.710;2022-12-10T11:30:30;12.60;72.90
40630;DHT22;26329;40.388;-3.710;2022-12-10T11:40:43;12.90;69.50
40630;DHT22;26329;40.388;-3.710;2022-12-10T11:50:52;13.00;68.60
40630;DHT22;26329;40.388;-3.710;2022-12-10T12:21:35;13.40;66.60
40630;DHT22;26329;40.388;-3.710;2022-12-10T12:31:40;14.30;68.50
40630;DHT22;26329;40.388;-3.710;2022-12-10T12:42:06;14.80;64.60
40630;DHT22;26329;40.388;-3.710;2022-12-10T13:44:39;14.20;60.30
40630;DHT22;26329;40.388;-3.710;2022-12-10T13:54:58;14.30;58.20
40630;DHT22;26329;40.388;-3.710;2022-12-10T14:05:08;14.30;56.60
40630;DHT22;26329;40.388;-3.710;2022-12-10T14:15:20;14.40;62.80
40630;DHT22;26329;40.388;-3.710;2022-12-10T14:25:24;14.30;65.60
40630;DHT22;26329;40.388;-3.710;2022-12-10T14:35:27;14.10;66.60
40630;DHT22;26329;40.388;-3.710;2022-12-10T14:55:58;14.10;66.60
40630;DHT22;26329;40.388;-3.710;2022-12-10T15:06:05;14.00;66.40
40630;DHT22;26329;40.388;-3.710;2022-12-10T15:26:32;13.80;67.90
40630;DHT22;26329;40.388;-3.710;2022-12-10T15:36:47;13.60;68.40
40630;DHT22;26329;40.388;-3.710;2022-12-10T15:47:22;13.40;68.60
40630;DHT22;26329;40.388;-3.710;2022-12-10T15:57:28;13.30;70.00
40630;DHT22;26329;40.388;-3.710;2022-12-10T16:07:31;13.30;70.70
40630;DHT22;26329;40.388;-3.710;2022-12-10T16:17:33;13.10;71.80
40630;DHT22;26329;40.388;-3.710;2022-12-10T16:27:35;12.90;72.20
40630;DHT22;26329;40.388;-3.710;2022-12-10T16:37:45;12.90;72.90
40630;DHT22;26329;40.388;-3.710;2022-12-10T16:47:47;12.70;74.00
40630;DHT22;26329;40.388;-3.710;2022-12-10T16:57:49;12.70;73.30
40630;DHT22;26329;40.388;-3.710;2022-12-10T17:07:51;12.50;72.30
40630;DHT22;26329;40.388;-3.710;2022-12-10T17:17:52;12.40;72.70
40630;DHT22;26329;40.388;-3.710;2022-12-10T17:27:54;12.40;71.50
40630;DHT22;26329;40.388;-3.710;2022-12-10T17:37:56;12.30;72.40
40630;DHT22;26329;40.388;-3.710;2022-12-10T17:47:57;12.00;73.30
40630;DHT22;26329;40.388;-3.710;2022-12-10T17:58:00;11.90;74.40
40630;DHT22;26329;40.388;-3.710;2022-12-10T18:08:01;11.90;74.50
40630;DHT22;26329;40.388;-3.710;2022-12-10T18:18:03;11.90;74.90
40630;DHT22;26329;40.388;-3.710;2022-12-10T18:28:41;11.70;75.90
40630;DHT22;26329;40.388;-3.710;2022-12-10T18:38:39;11.80;76.30
40630;DHT22;26329;40.388;-3.710;2022-12-10T18:48:41;11.70;77.10
40630;DHT22;26329;40.388;-3.710;2022-12-10T18:58:43;11.60;77.50
40630;DHT22;26329;40.388;-3.710;2022-12-10T19:08:45;11.60;78.00
40630;DHT22;26329;40.388;-3.710;2022-12-10T19:18:48;11.60;78.50
40630;DHT22;26329;40.388;-3.710;2022-12-10T19:28:49;11.60;78.90
40630;DHT22;26329;40.388;-3.710;2022-12-10T19:38:52;11.70;79.40
40630;DHT22;26329;40.388;-3.710;2022-12-10T19:48:54;11.60;78.80
40630;DHT22;26329;40.388;-3.710;2022-12-10T19:58:58;11.70;78.70
40630;DHT22;26329;40.388;-3.710;2022-12-10T20:09:10;11.50;79.00
40630;DHT22;26329;40.388;-3.710;2022-12-10T20:19:15;11.50;78.90
40630;DHT22;26329;40.388;-3.710;2022-12-10T20:29:23;11.40;79.00
40630;DHT22;26329;40.388;-3.710;2022-12-10T20:39:30;11.30;79.20
40630;DHT22;26329;40.388;-3.710;2022-12-10T20:49:32;11.30;79.40
40630;DHT22;26329;40.388;-3.710;2022-12-10T20:59:34;11.30;79.60
40630;DHT22;26329;40.388;-3.710;2022-12-10T21:09:36;11.40;79.10
40630;DHT22;26329;40.388;-3.710;2022-12-10T21:19:38;11.30;78.80
40630;DHT22;26329;40.388;-3.710;2022-12-10T21:29:40;11.40;77.40
40630;DHT22;26329;40.388;-3.710;2022-12-10T21:39:42;11.10;77.40
40630;DHT22;26329;40.388;-3.710;2022-12-10T21:49:44;11.20;75.90
40630;DHT22;26329;40.388;-3.710;2022-12-10T21:59:48;11.10;74.90
40630;DHT22;26329;40.388;-3.710;2022-12-10T22:09:52;11.10;72.30
40630;DHT22;26329;40.388;-3.710;2022-12-10T22:19:56;10.90;72.30
40630;DHT22;26329;40.388;-3.710;2022-12-10T22:29:59;10.80;72.70
40630;DHT22;26329;40.388;-3.710;2022-12-10T22:40:03;10.80;73.30
40630;DHT22;26329;40.388;-3.710;2022-12-10T22:50:08;10.80;73.40
40630;DHT22;26329;40.388;-3.710;2022-12-10T23:00:13;10.80;72.50
40630;DHT22;26329;40.388;-3.710;2022-12-10T23:10:17;10.80;72.10
40630;DHT22;26329;40.388;-3.710;2022-12-10T23:20:19;10.80;72.30
40630;DHT22;26329;40.388;-3.710;2022-12-10T23:30:22;10.70;71.90
40630;DHT22;26329;40.388;-3.710;2022-12-10T23:40:25;10.60;71.80
40630;DHT22;26329;40.388;-3.710;2022-12-10T23:50:27;10.70;71.80
